Time;durP1;ratioP1;P1;durP2;ratioP2;P2;SDS_P1;SDS_P2;PMS_P1;PMS_P2;Temp;Humidity;BMP_temperature;BMP_pressure;BME280_temperature;BME280_humidity;BME280_pressure;Samples;Min_cycle;Max_cycle;Signal;HPM_P1;HPM_P2
2024/01/21 00:00:35;;;;;;;8.50;4.10;;;-0.60;99.90;;;;;;5121496;28;20471;-55
2024/01/21 00:03:03;;;;;;;5.27;4.00;;;-0.60;99.90;;;;;;5121898;28;20926;-55
2024/01/21 00:05:30;;;;;;;6.67;4.20;;;-0.60;99.90;;;;;;5121568;28;20757;-53
2024/01/21 00:07:59;;;;;;;7.80;4.07;;;-0.60;99.90;;;;;;5121161;28;20457;-55
2024/01/21 00:10:27;;;;;;;5.63;4.03;;;-0.50;99.90;;;;;;5120777;28;20465;-51
2024/01/21 00:12:54;;;;;;;5.83;4.23;;;-0.50;99.90;;;;;;5121180;28;20984;-49
2024/01/21 00:15:25;;;;;;;7.00;4.47;;;-0.60;99.90;;;;;;5121935;28;20459;-53
2024/01/21 00:17:52;;;;;;;5.63;4.50;;;-0.60;99.90;;;;;;5119836;28;20439;-54
2024/01/21 00:20:20;;;;;;;7.40;4.90;;;-0.60;99.90;;;;;;5121040;28;20474;-55
2024/01/21 00:22:48;;;;;;;5.50;4.43;;;-0.60;99.90;;;;;;5120426;28;20500;-53
2024/01/21 00:25:18;;;;;;;6.20;4.70;;;-0.50;99.90;;;;;;5121220;28;20430;-49
2024/01/21 00:27:45;;;;;;;10.30;5.60;;;-0.50;99.90;;;;;;5120592;28;20491;-53
2024/01/21 00:30:13;;;;;;;6.93;4.40;;;-0.50;99.90;;;;;;5120530;27;20464;-52
2024/01/21 00:32:41;;;;;;;8.60;5.33;;;-0.50;99.90;;;;;;5120965;28;20544;-51
2024/01/21 00:35:09;;;;;;;8.90;5.10;;;-0.50;99.90;;;;;;5120752;28;20465;-51
2024/01/21 00:37:36;;;;;;;8.17;5.37;;;-0.50;99.90;;;;;;5121110;27;20427;-52
2024/01/21 00:40:05;;;;;;;8.30;5.63;;;-0.50;99.90;;;;;;5120615;28;20905;-55
2024/01/21 00:42:34;;;;;;;7.50;5.70;;;-0.50;99.90;;;;;;5120794;28;20431;-53
2024/01/21 00:45:02;;;;;;;7.63;5.27;;;-0.50;99.90;;;;;;5120879;28;20866;-49
2024/01/21 00:47:29;;;;;;;7.70;5.30;;;-0.40;99.90;;;;;;5121271;28;20462;-47
2024/01/21 00:49:57;;;;;;;9.50;6.33;;;-0.40;99.90;;;;;;5120644;28;20462;-48
2024/01/21 00:52:25;;;;;;;8.33;6.10;;;-0.40;99.90;;;;;;5120238;28;20529;-53
2024/01/21 00:54:53;;;;;;;8.40;5.63;;;-0.50;99.90;;;;;;5120769;28;20473;-54
2024/01/21 00:57:21;;;;;;;9.80;6.00;;;-0.40;99.90;;;;;;5120389;28;20461;-53
2024/01/21 00:59:50;;;;;;;7.83;6.27;;;-0.40;99.90;;;;;;5120543;28;20519;-55
2024/01/21 01:02:17;;;;;;;9.97;6.20;;;-0.30;99.90;;;;;;5120430;28;20431;-54
2024/01/21 01:04:45;;;;;;;11.00;6.20;;;-0.40;99.90;;;;;;5120117;28;20456;-49
2024/01/21 01:07:12;;;;;;;8.47;6.00;;;-0.30;99.90;;;;;;5120359;27;20553;-51
2024/01/21 01:09:40;;;;;;;7.83;6.27;;;-0.30;99.90;;;;;;5119867;28;20493;-48
2024/01/21 01:12:08;;;;;;;8.57;6.37;;;-0.20;99.90;;;;;;5120100;28;20559;-54
2024/01/21 01:14:35;;;;;;;8.50;6.33;;;-0.20;99.90;;;;;;5120253;28;20951;-51
2024/01/21 01:17:04;;;;;;;12.13;7.90;;;-0.30;99.90;;;;;;5120288;28;20884;-55
2024/01/21 01:19:32;;;;;;;9.07;6.03;;;-0.30;99.90;;;;;;5119661;28;20457;-53
2024/01/21 01:22:01;;;;;;;10.43;6.27;;;-0.30;99.90;;;;;;5118749;28;20501;-51
2024/01/21 01:24:28;;;;;;;8.37;6.20;;;-0.20;99.90;;;;;;5119786;28;20456;-51
2024/01/21 01:26:56;;;;;;;7.40;5.97;;;-0.20;99.90;;;;;;5120067;28;20453;-54
2024/01/21 01:29:23;;;;;;;10.23;5.80;;;-0.20;99.90;;;;;;5119686;28;20501;-56
2024/01/21 01:31:50;;;;;;;11.90;7.03;;;-0.30;99.90;;;;;;5119252;28;20467;-52
2024/01/21 01:34:19;;;;;;;8.13;5.90;;;-0.20;99.90;;;;;;5119610;28;20857;-49
2024/01/21 01:36:46;;;;;;;9.00;6.27;;;-0.20;99.90;;;;;;5119657;28;20456;-47
2024/01/21 01:39:14;;;;;;;10.17;5.87;;;-0.20;99.90;;;;;;5118970;28;20447;-51
2024/01/21 01:41:41;;;;;;;9.30;6.17;;;-0.20;99.90;;;;;;5118924;28;20464;-48
2024/01/21 01:44:08;;;;;;;9.77;6.50;;;-0.10;99.90;;;;;;5119342;28;20455;-54
2024/01/21 01:46:36;;;;;;;8.53;6.30;;;-0.10;99.90;;;;;;5119169;28;20908;-50
2024/01/21 01:49:06;;;;;;;10.07;6.10;;;-0.10;99.90;;;;;;5119674;28;20461;-53
2024/01/21 01:51:37;;;;;;;9.73;6.83;;;-0.20;99.90;;;;;;5120080;28;20719;-53
2024/01/21 01:54:05;;;;;;;10.43;6.73;;;-0.10;99.90;;;;;;5118767;28;20480;-55
2024/01/21 01:56:33;;;;;;;11.20;6.80;;;0.00;99.90;;;;;;5119364;28;20463;-54
2024/01/21 01:59:01;;;;;;;8.17;6.20;;;0.00;99.90;;;;;;5119606;28;20462;-53
2024/01/21 02:01:29;;;;;;;9.07;6.30;;;0.00;99.90;;;;;;5119282;28;20463;-54
2024/01/21 02:03:57;;;;;;;8.83;6.37;;;0.00;99.90;;;;;;5118717;28;20462;-52
2024/01/21 02:06:24;;;;;;;7.80;5.83;;;0.00;99.90;;;;;;5119259;28;20463;-54
2024/01/21 02:08:53;;;;;;;10.50;6.67;;;0.10;99.90;;;;;;5118694;28;20964;-55
2024/01/21 02:11:20;;;;;;;8.83;6.17;;;0.10;99.90;;;;;;5119335;28;20468;-53
2024/01/21 02:13:47;;;;;;;9.30;6.53;;;0.10;99.90;;;;;;5118732;27;20587;-55
2024/01/21 02:16:15;;;;;;;9.70;6.63;;;0.10;99.90;;;;;;5118865;28;20473;-53
2024/01/21 02:18:44;;;;;;;9.00;6.90;;;0.10;99.90;;;;;;5119042;28;20518;-52
2024/01/21 02:21:11;;;;;;;13.30;7.07;;;0.10;99.90;;;;;;5119043;28;20461;-55
2024/01/21 02:23:40;;;;;;;8.27;6.20;;;0.10;99.90;;;;;;5119261;28;20473;-55
2024/01/21 02:26:07;;;;;;;10.20;7.37;;;0.20;99.90;;;;;;5119040;28;20434;-56
2024/01/21 02:28:34;;;;;;;10.63;6.50;;;0.20;99.90;;;;;;5119117;28;20498;-55
2024/01/21 02:31:01;;;;;;;9.00;6.70;;;0.10;99.90;;;;;;5119106;28;20461;-53
2024/01/21 02:33:29;;;;;;;9.63;6.10;;;0.10;99.90;;;;;;5118664;28;20970;-48
2024/01/21 02:35:56;;;;;;;12.70;6.90;;;0.20;99.90;;;;;;5118344;28;20463;-48
2024/01/21 02:38:24;;;;;;;10.50;6.67;;;0.20;99.90;;;;;;5119006;28;20847;-55
2024/01/21 02:40:52;;;;;;;9.70;6.50;;;0.10;99.90;;;;;;5117542;28;20531;-53
2024/01/21 02:43:20;;;;;;;9.80;6.40;;;0.10;99.90;;;;;;5119074;28;20465;-53
2024/01/21 02:45:47;;;;;;;9.23;6.23;;;0.20;99.90;;;;;;5118319;28;20435;-47
2024/01/21 02:48:14;;;;;;;12.53;7.63;;;0.10;99.90;;;;;;5119146;28;20522;-51
2024/01/21 02:50:41;;;;;;;9.87;6.60;;;0.10;99.90;;;;;;5118644;28;20562;-52
2024/01/21 02:53:08;;;;;;;14.83;7.23;;;0.10;99.90;;;;;;5118922;28;20460;-54
2024/01/21 02:55:36;;;;;;;11.23;6.83;;;0.10;99.90;;;;;;5118697;28;20540;-54
2024/01/21 02:58:04;;;;;;;9.10;6.23;;;0.10;99.90;;;;;;5118175;28;20480;-53
2024/01/21 03:00:32;;;;;;;11.10;7.17;;;0.10;99.90;;;;;;5118596;28;20547;-52
2024/01/21 03:02:59;;;;;;;9.50;5.60;;;0.10;99.90;;;;;;5118568;28;20461;-55
2024/01/21 03:05:26;;;;;;;12.37;6.53;;;0.10;99.90;;;;;;5119100;28;20772;-55
2024/01/21 03:07:54;;;;;;;13.97;7.37;;;0.10;99.90;;;;;;5118266;28;20493;-56
2024/01/21 03:10:21;;;;;;;13.10;7.00;;;0.10;99.90;;;;;;5118329;28;20974;-55
2024/01/21 03:12:48;;;;;;;9.73;6.40;;;0.00;99.90;;;;;;5117971;28;20458;-56
2024/01/21 03:15:17;;;;;;;12.23;6.57;;;0.10;99.90;;;;;;5118489;28;20506;-55
2024/01/21 03:17:44;;;;;;;13.20;7.20;;;0.10;99.90;;;;;;5118312;28;20458;-54
2024/01/21 03:20:12;;;;;;;15.17;7.27;;;0.10;99.90;;;;;;5118323;28;20452;-56
2024/01/21 03:22:39;;;;;;;10.83;6.77;;;0.10;99.90;;;;;;5118278;28;20480;-55
2024/01/21 03:25:07;;;;;;;9.70;6.90;;;0.10;99.90;;;;;;5118876;28;20460;-56
2024/01/21 03:27:34;;;;;;;10.90;6.27;;;0.10;99.90;;;;;;5118130;28;20456;-53
2024/01/21 03:30:01;;;;;;;11.43;6.43;;;0.10;99.90;;;;;;5118074;28;20760;-52
2024/01/21 03:32:30;;;;;;;10.50;7.00;;;0.10;99.90;;;;;;5117977;28;20433;-52
2024/01/21 03:34:57;;;;;;;8.77;5.67;;;0.00;99.90;;;;;;5118207;28;20888;-54
2024/01/21 03:37:24;;;;;;;11.50;6.30;;;0.00;99.90;;;;;;5118425;28;20501;-54
2024/01/21 03:39:52;;;;;;;10.53;6.77;;;0.10;99.90;;;;;;5117699;28;20542;-56
2024/01/21 03:42:19;;;;;;;17.67;6.77;;;0.10;99.90;;;;;;5117867;28;20481;-56
2024/01/21 03:44:48;;;;;;;11.67;6.83;;;0.10;99.90;;;;;;5118246;28;20457;-52
2024/01/21 03:47:15;;;;;;;9.00;6.60;;;0.10;99.90;;;;;;5118137;28;20465;-47
2024/01/21 03:49:44;;;;;;;10.87;6.37;;;0.00;99.90;;;;;;5117383;28;20461;-50
2024/01/21 03:52:11;;;;;;;9.23;6.27;;;0.10;99.90;;;;;;5119568;28;20518;-52
2024/01/21 03:54:39;;;;;;;8.37;6.13;;;0.10;99.90;;;;;;5121807;28;20513;-55
2024/01/21 03:57:06;;;;;;;10.67;6.63;;;0.20;99.90;;;;;;5121504;28;20493;-54
2024/01/21 03:59:33;;;;;;;9.60;6.80;;;0.20;99.90;;;;;;5122128;28;20503;-56
2024/01/21 04:02:00;;;;;;;7.93;6.00;;;0.10;99.90;;;;;;5121693;28;20518;-53
2024/01/21 04:04:28;;;;;;;7.27;5.40;;;0.10;99.90;;;;;;5121424;28;20515;-51
2024/01/21 04:06:57;;;;;;;9.10;5.70;;;0.20;99.90;;;;;;5121765;28;20803;-52
2024/01/21 04:09:24;;;;;;;9.83;6.43;;;0.20;99.90;;;;;;5121380;28;20747;-49
2024/01/21 04:11:51;;;;;;;7.10;5.27;;;0.20;99.90;;;;;;5120997;28;20550;-55
2024/01/21 04:14:19;;;;;;;11.20;6.03;;;0.20;99.90;;;;;;5121043;28;20500;-55
2024/01/21 04:16:46;;;;;;;9.83;5.87;;;0.20;99.90;;;;;;5121245;28;20557;-51
2024/01/21 04:19:13;;;;;;;7.73;5.10;;;0.20;99.90;;;;;;5121299;28;20463;-51
2024/01/21 04:21:40;;;;;;;7.33;5.80;;;0.20;99.90;;;;;;5121286;28;20865;-52
2024/01/21 04:24:09;;;;;;;8.47;5.20;;;0.20;99.90;;;;;;5120827;28;20475;-54
2024/01/21 04:26:36;;;;;;;8.00;5.87;;;0.10;99.90;;;;;;5120700;28;20464;-54
2024/01/21 04:29:03;;;;;;;9.50;5.70;;;0.10;99.90;;;;;;5121150;28;20497;-54
2024/01/21 04:31:31;;;;;;;7.73;4.87;;;0.10;99.90;;;;;;5120789;28;20818;-51
2024/01/21 04:33:58;;;;;;;8.83;5.70;;;0.10;99.90;;;;;;5120451;28;20523;-50
2024/01/21 04:36:25;;;;;;;8.40;5.87;;;0.10;99.90;;;;;;5120933;28;20498;-53
2024/01/21 04:38:53;;;;;;;8.60;5.73;;;0.10;99.90;;;;;;5121322;28;20875;-50
2024/01/21 04:41:22;;;;;;;7.53;5.40;;;0.10;99.90;;;;;;5120843;28;20784;-53
2024/01/21 04:43:49;;;;;;;7.83;5.37;;;0.10;99.90;;;;;;5120651;28;20488;-51
2024/01/21 04:46:16;;;;;;;8.07;5.37;;;0.10;99.90;;;;;;5120128;28;20805;-49
2024/01/21 04:48:43;;;;;;;7.10;4.83;;;0.00;99.90;;;;;;5120846;27;20490;-56
2024/01/21 04:51:12;;;;;;;9.10;5.27;;;0.10;99.90;;;;;;5121088;28;20462;-55
2024/01/21 04:53:39;;;;;;;8.33;5.40;;;0.10;99.90;;;;;;5120141;28;20508;-56
2024/01/21 04:56:07;;;;;;;8.43;5.57;;;0.10;99.90;;;;;;5120495;28;20904;-56
2024/01/21 04:58:36;;;;;;;9.20;5.73;;;0.10;99.90;;;;;;5119734;28;20439;-54
2024/01/21 05:01:03;;;;;;;8.43;5.23;;;0.10;99.90;;;;;;5120223;28;20917;-55
2024/01/21 05:03:30;;;;;;;6.63;5.30;;;0.10;99.90;;;;;;5119918;28;20457;-50
2024/01/21 05:05:58;;;;;;;8.27;6.03;;;0.10;99.90;;;;;;5120638;28;20468;-53
2024/01/21 05:08:25;;;;;;;7.33;5.40;;;0.10;99.90;;;;;;5120158;28;20456;-53
2024/01/21 05:10:52;;;;;;;8.50;6.43;;;0.10;99.90;;;;;;5120759;28;20457;-54
2024/01/21 05:13:19;;;;;;;7.13;5.77;;;0.10;99.90;;;;;;5120431;28;20735;-54
2024/01/21 05:15:48;;;;;;;8.10;5.80;;;0.20;99.90;;;;;;5119912;28;20592;-52
2024/01/21 05:18:19;;;;;;;7.73;5.90;;;0.10;99.90;;;;;;5119999;28;20462;-50
2024/01/21 05:20:46;;;;;;;7.60;5.33;;;0.10;99.90;;;;;;5120406;28;20460;-51
2024/01/21 05:23:13;;;;;;;8.47;6.23;;;0.10;99.90;;;;;;5120278;28;20559;-53
2024/01/21 05:25:40;;;;;;;7.50;5.33;;;0.10;99.90;;;;;;5119513;28;20558;-50
2024/01/21 05:28:07;;;;;;;8.30;5.90;;;0.10;99.90;;;;;;5119734;28;20551;-54
2024/01/21 05:30:35;;;;;;;8.20;5.67;;;0.10;99.90;;;;;;5119339;28;20432;-54
2024/01/21 05:33:04;;;;;;;9.27;6.23;;;0.10;99.90;;;;;;5119626;28;20730;-53
2024/01/21 05:35:31;;;;;;;8.87;5.73;;;0.10;99.90;;;;;;5119732;28;20606;-50
2024/01/21 05:37:59;;;;;;;6.80;5.20;;;0.20;99.90;;;;;;5119719;28;20459;-51
2024/01/21 05:40:27;;;;;;;8.87;5.97;;;0.10;99.90;;;;;;5119642;28;20469;-49
2024/01/21 05:42:54;;;;;;;9.40;6.13;;;0.10;99.90;;;;;;5119210;28;20450;-50
2024/01/21 05:45:21;;;;;;;8.63;5.73;;;0.10;99.90;;;;;;5119370;28;20427;-52
2024/01/21 05:47:49;;;;;;;10.27;5.80;;;0.00;99.90;;;;;;5119432;28;20461;-54
2024/01/21 05:50:17;;;;;;;6.60;4.97;;;0.00;99.90;;;;;;5119055;28;20430;-54
2024/01/21 05:52:45;;;;;;;11.83;6.63;;;0.00;99.90;;;;;;5119703;28;20462;-53
2024/01/21 05:55:12;;;;;;;8.50;6.07;;;0.00;99.90;;;;;;5119158;28;20584;-52
2024/01/21 05:57:40;;;;;;;7.60;5.37;;;0.00;99.90;;;;;;5119217;28;20466;-52
2024/01/21 06:00:08;;;;;;;7.67;5.27;;;0.10;99.90;;;;;;5118515;28;20560;-55
2024/01/21 06:02:35;;;;;;;8.40;5.83;;;0.10;99.90;;;;;;5118910;28;20462;-55
2024/01/21 06:05:02;;;;;;;8.30;6.10;;;0.10;99.90;;;;;;5118726;28;20459;-55
2024/01/21 06:07:31;;;;;;;9.07;6.20;;;0.10;99.90;;;;;;5119283;28;20481;-50
2024/01/21 06:09:58;;;;;;;8.33;6.10;;;0.10;99.90;;;;;;5118439;28;20486;-52
2024/01/21 06:12:25;;;;;;;8.90;5.60;;;0.00;99.90;;;;;;5118953;28;20477;-53
2024/01/21 06:14:53;;;;;;;9.17;5.73;;;0.00;99.90;;;;;;5118527;28;20986;-51
2024/01/21 06:17:20;;;;;;;11.00;6.30;;;0.00;99.90;;;;;;5118413;28;20833;-50
2024/01/21 06:19:47;;;;;;;8.43;6.50;;;-0.10;99.90;;;;;;5118861;28;20887;-48
2024/01/21 06:22:14;;;;;;;9.07;7.00;;;-0.10;99.90;;;;;;5119000;28;20453;-47
2024/01/21 06:24:43;;;;;;;11.27;6.77;;;-0.10;99.90;;;;;;5119088;28;20433;-51
2024/01/21 06:27:10;;;;;;;9.37;6.60;;;-0.10;99.90;;;;;;5119352;28;20432;-55
2024/01/21 06:29:37;;;;;;;9.43;6.50;;;-0.20;99.90;;;;;;5118889;28;20509;-52
2024/01/21 06:32:05;;;;;;;12.83;6.40;;;-0.20;99.90;;;;;;5118695;28;20696;-53
2024/01/21 06:34:32;;;;;;;8.40;5.43;;;-0.30;99.90;;;;;;5118608;28;20497;-53
2024/01/21 06:36:59;;;;;;;9.90;6.93;;;-0.30;99.90;;;;;;5119097;28;20456;-53
2024/01/21 06:39:27;;;;;;;14.50;7.53;;;-0.30;99.90;;;;;;5118815;28;20529;-52
2024/01/21 06:41:55;;;;;;;13.60;9.10;;;-0.30;99.90;;;;;;5118444;28;20526;-47
2024/01/21 06:44:30;;;;;;;13.20;9.43;;;-0.30;99.90;;;;;;5118970;28;20431;-54
2024/01/21 06:46:57;;;;;;;11.53;8.37;;;-0.40;99.90;;;;;;5119332;28;20512;-52
2024/01/21 06:49:24;;;;;;;11.47;8.13;;;-0.30;99.90;;;;;;5118883;28;20430;-55
2024/01/21 06:51:54;;;;;;;7.47;6.10;;;-0.30;99.90;;;;;;5118214;28;20527;-54
2024/01/21 06:54:22;;;;;;;17.47;10.17;;;-0.40;99.90;;;;;;5119026;28;20457;-55
2024/01/21 06:56:49;;;;;;;10.70;8.00;;;-0.40;99.90;;;;;;5118610;28;20465;-51
2024/01/21 06:59:18;;;;;;;12.30;7.67;;;-0.40;99.90;;;;;;5119384;28;20532;-51
2024/01/21 07:01:45;;;;;;;11.33;7.70;;;-0.40;99.90;;;;;;5118511;28;20505;-52
2024/01/21 07:04:13;;;;;;;11.03;7.70;;;-0.50;99.90;;;;;;5118467;28;20752;-47
2024/01/21 07:06:41;;;;;;;10.20;7.70;;;-0.50;99.90;;;;;;5117970;28;20453;-51
2024/01/21 07:09:09;;;;;;;11.00;8.30;;;-0.50;99.90;;;;;;5118179;28;20458;-53
2024/01/21 07:11:40;;;;;;;14.63;8.40;;;-0.50;99.90;;;;;;5118667;28;20872;-53
2024/01/21 07:14:08;;;;;;;10.73;7.53;;;-0.50;99.90;;;;;;5118452;28;20763;-52
2024/01/21 07:16:36;;;;;;;12.47;8.00;;;-0.50;99.90;;;;;;5118337;28;20511;-52
2024/01/21 07:19:04;;;;;;;12.13;8.10;;;-0.40;99.90;;;;;;5118414;28;20485;-52
2024/01/21 07:21:31;;;;;;;10.47;6.73;;;-0.50;99.90;;;;;;5118377;28;20508;-44
2024/01/21 07:23:58;;;;;;;11.57;7.40;;;-0.50;99.90;;;;;;5118101;28;20878;-51
2024/01/21 07:26:27;;;;;;;9.67;7.57;;;-0.40;99.90;;;;;;5118647;28;20871;-53
2024/01/21 07:28:54;;;;;;;11.80;8.57;;;-0.40;99.90;;;;;;5122081;28;20480;-48
2024/01/21 07:31:22;;;;;;;13.40;8.40;;;-0.40;99.90;;;;;;5122166;28;20491;-53
2024/01/21 07:33:50;;;;;;;10.77;6.90;;;-0.40;99.90;;;;;;5121421;28;20466;-51
2024/01/21 07:36:18;;;;;;;11.40;8.07;;;-0.40;99.90;;;;;;5121369;28;20810;-50
2024/01/21 07:38:45;;;;;;;14.83;8.70;;;-0.40;99.90;;;;;;5121601;28;20946;-50
2024/01/21 07:41:12;;;;;;;10.50;7.87;;;-0.40;99.90;;;;;;5121725;28;20461;-50
2024/01/21 07:43:40;;;;;;;13.73;8.43;;;-0.40;99.90;;;;;;5121365;28;20432;-52
2024/01/21 07:46:07;;;;;;;11.73;8.33;;;-0.30;99.90;;;;;;5121278;28;20458;-54
2024/01/21 07:48:34;;;;;;;12.33;8.20;;;-0.30;99.90;;;;;;5121423;28;20459;-49
2024/01/21 07:51:03;;;;;;;10.70;7.63;;;-0.30;99.90;;;;;;5121784;27;20456;-52
2024/01/21 07:53:30;;;;;;;11.97;8.00;;;-0.30;99.90;;;;;;5121129;28;20432;-55
2024/01/21 07:55:57;;;;;;;10.67;7.63;;;-0.20;99.90;;;;;;5121173;28;20526;-55
2024/01/21 07:58:25;;;;;;;12.17;8.20;;;-0.20;99.90;;;;;;5120966;28;20498;-50
2024/01/21 08:00:52;;;;;;;12.27;7.97;;;-0.20;99.90;;;;;;5121132;28;20469;-51
2024/01/21 08:03:19;;;;;;;9.87;7.63;;;-0.20;99.90;;;;;;5121453;28;20481;-55
2024/01/21 08:05:47;;;;;;;11.30;7.63;;;-0.10;99.90;;;;;;5121049;28;20436;-48
2024/01/21 08:08:15;;;;;;;12.93;8.83;;;-0.10;99.90;;;;;;5120991;28;20623;-55
2024/01/21 08:10:43;;;;;;;13.37;8.27;;;-0.10;99.90;;;;;;5120804;28;20492;-54
2024/01/21 08:13:10;;;;;;;16.53;10.83;;;0.00;99.90;;;;;;5120799;28;20462;-49
2024/01/21 08:15:38;;;;;;;22.07;13.27;;;0.00;99.90;;;;;;5120206;28;20843;-53
2024/01/21 08:18:06;;;;;;;11.63;8.50;;;0.00;99.90;;;;;;5120651;28;20862;-50
2024/01/21 08:20:33;;;;;;;10.77;8.40;;;0.10;99.90;;;;;;5121168;28;20500;-52
2024/01/21 08:23:01;;;;;;;12.30;9.40;;;0.00;99.90;;;;;;5120618;28;20440;-53
2024/01/21 08:25:30;;;;;;;17.00;10.87;;;0.00;99.90;;;;;;5120774;28;20555;-49
2024/01/21 08:27:57;;;;;;;10.90;7.90;;;0.10;99.90;;;;;;5120215;28;20466;-54
2024/01/21 08:30:25;;;;;;;9.10;7.13;;;0.10;99.90;;;;;;5119921;28;20490;-48
2024/01/21 08:32:55;;;;;;;12.50;8.30;;;0.10;99.90;;;;;;5121029;28;20460;-55
2024/01/21 08:35:22;;;;;;;11.87;8.17;;;0.10;99.90;;;;;;5120515;28;20488;-54
2024/01/21 08:37:50;;;;;;;13.87;9.00;;;0.20;99.90;;;;;;5118799;28;20458;-56
2024/01/21 08:40:17;;;;;;;17.63;11.47;;;0.10;99.90;;;;;;5118058;28;20551;-53
2024/01/21 08:42:46;;;;;;;12.30;8.67;;;0.20;99.90;;;;;;5118802;28;20520;-53
2024/01/21 08:45:14;;;;;;;16.67;9.50;;;0.10;99.90;;;;;;5118734;28;20753;-55
2024/01/21 08:47:41;;;;;;;13.40;9.93;;;0.20;99.90;;;;;;5118744;28;20536;-51
2024/01/21 08:50:09;;;;;;;11.77;8.90;;;0.10;99.90;;;;;;5118747;28;20872;-55
2024/01/21 08:52:37;;;;;;;14.57;9.37;;;0.10;99.90;;;;;;5119392;27;20434;-55
2024/01/21 08:55:05;;;;;;;13.57;9.27;;;0.10;99.90;;;;;;5119460;28;20467;-56
2024/01/21 08:57:32;;;;;;;13.87;9.53;;;0.10;99.90;;;;;;5120142;28;20448;-56
2024/01/21 09:00:02;;;;;;;15.60;8.77;;;0.00;99.90;;;;;;5119284;28;20890;-52
2024/01/21 09:02:29;;;;;;;17.07;10.20;;;0.10;99.90;;;;;;5120073;28;20451;-53
2024/01/21 09:04:57;;;;;;;13.33;9.33;;;0.10;99.90;;;;;;5120418;28;20433;-53
2024/01/21 09:07:25;;;;;;;14.47;9.60;;;0.10;99.90;;;;;;5119985;28;20445;-51
2024/01/21 09:09:52;;;;;;;13.70;10.50;;;0.20;99.90;;;;;;5119512;28;20481;-53
2024/01/21 09:12:20;;;;;;;15.60;8.87;;;0.20;99.90;;;;;;5119733;28;20432;-55
2024/01/21 09:14:48;;;;;;;13.70;9.33;;;0.20;99.90;;;;;;5119385;28;20547;-53
2024/01/21 09:17:17;;;;;;;14.13;9.50;;;0.20;99.90;;;;;;5119781;28;20519;-49
2024/01/21 09:19:44;;;;;;;15.47;9.57;;;0.30;99.90;;;;;;5118975;28;20516;-55
2024/01/21 09:22:12;;;;;;;15.27;10.73;;;0.30;99.90;;;;;;5119743;28;20460;-52
2024/01/21 09:24:40;;;;;;;14.60;9.10;;;0.30;99.90;;;;;;5119024;28;20912;-53
2024/01/21 09:27:08;;;;;;;11.60;8.67;;;0.40;99.90;;;;;;5119778;28;20429;-55
2024/01/21 09:29:36;;;;;;;12.83;8.53;;;0.40;99.90;;;;;;5119893;28;20464;-56
2024/01/21 09:32:04;;;;;;;12.63;9.20;;;0.40;99.90;;;;;;5119144;28;20473;-53
2024/01/21 09:34:33;;;;;;;12.47;8.50;;;0.50;99.90;;;;;;5119261;28;20501;-52
2024/01/21 09:37:01;;;;;;;13.27;9.17;;;0.50;99.90;;;;;;5119638;28;20494;-53
2024/01/21 09:39:28;;;;;;;11.77;9.47;;;0.60;99.90;;;;;;5119654;28;20457;-54
2024/01/21 09:41:57;;;;;;;14.47;8.97;;;0.70;99.90;;;;;;5118986;28;20457;-53
2024/01/21 09:44:28;;;;;;;14.27;9.53;;;0.80;99.90;;;;;;5119023;28;20433;-52
2024/01/21 09:46:57;;;;;;;14.87;8.63;;;0.90;99.90;;;;;;5119495;28;20560;-51
2024/01/21 09:49:25;;;;;;;12.37;8.60;;;0.90;99.90;;;;;;5118977;28;20878;-51
2024/01/21 09:51:55;;;;;;;13.20;9.13;;;0.90;99.90;;;;;;5118013;28;20818;-53
2024/01/21 09:54:24;;;;;;;12.57;8.73;;;0.90;99.90;;;;;;5118129;28;20454;-52
2024/01/21 09:56:51;;;;;;;14.33;9.47;;;0.90;99.90;;;;;;5118700;28;20772;-55
2024/01/21 09:59:19;;;;;;;13.17;8.93;;;0.90;99.90;;;;;;5118944;28;20504;-54
2024/01/21 10:01:47;;;;;;;17.00;10.10;;;1.00;99.90;;;;;;5118414;28;20459;-48
2024/01/21 10:04:16;;;;;;;16.93;9.70;;;1.00;99.90;;;;;;5118131;28;20754;-53
2024/01/21 10:06:44;;;;;;;13.20;8.97;;;1.10;99.90;;;;;;5117359;28;20430;-54
2024/01/21 10:09:17;;;;;;;13.73;10.53;;;1.00;99.90;;;;;;5116783;28;20530;-56
2024/01/21 10:11:50;;;;;;;13.90;9.80;;;1.10;99.90;;;;;;5116773;28;20462;-55
2024/01/21 10:14:17;;;;;;;14.10;9.20;;;1.00;99.90;;;;;;5117412;28;20462;-55
2024/01/21 10:16:45;;;;;;;16.27;8.87;;;1.10;99.90;;;;;;5117219;28;20506;-50
2024/01/21 10:19:16;;;;;;;13.87;9.10;;;1.20;99.90;;;;;;5117441;28;20466;-45
2024/01/21 10:21:49;;;;;;;13.30;9.20;;;1.20;99.90;;;;;;5117974;28;20483;-46
2024/01/21 10:24:23;;;;;;;16.40;10.00;;;1.20;99.90;;;;;;5117686;28;20543;-47
2024/01/21 10:26:50;;;;;;;14.00;9.00;;;1.10;99.90;;;;;;5118154;28;20458;-48
2024/01/21 10:29:18;;;;;;;13.80;10.47;;;1.10;99.90;;;;;;5118264;28;20463;-45
2024/01/21 10:31:45;;;;;;;16.87;9.80;;;1.20;99.90;;;;;;5117839;28;20463;-44
2024/01/21 10:34:14;;;;;;;12.90;9.63;;;1.20;99.90;;;;;;5117853;28;20442;-49
2024/01/21 10:36:46;;;;;;;13.60;9.57;;;1.20;99.90;;;;;;5117704;28;20487;-50
2024/01/21 10:39:20;;;;;;;16.23;9.90;;;1.20;99.90;;;;;;5118099;28;20463;-45
2024/01/21 10:41:49;;;;;;;12.23;9.27;;;1.20;99.90;;;;;;5109235;28;20519;-52
2024/01/21 10:44:17;;;;;;;13.10;9.40;;;1.30;99.90;;;;;;5102567;28;20471;-47
2024/01/21 10:46:47;;;;;;;15.80;10.10;;;1.30;99.90;;;;;;5097501;28;20465;-49
2024/01/21 10:49:15;;;;;;;15.07;10.70;;;1.40;99.90;;;;;;5097700;28;20470;-45
2024/01/21 10:51:43;;;;;;;16.10;11.17;;;1.40;99.90;;;;;;5096669;28;20464;-45
2024/01/21 10:54:12;;;;;;;14.27;9.90;;;1.40;99.90;;;;;;5097264;28;20881;-46
2024/01/21 10:56:41;;;;;;;14.33;8.87;;;1.50;99.90;;;;;;5097058;28;20488;-47
2024/01/21 10:59:09;;;;;;;13.00;9.93;;;1.40;99.90;;;;;;5097469;28;20558;-44
2024/01/21 11:01:41;;;;;;;14.10;10.10;;;1.50;99.90;;;;;;5098160;28;20465;-46
2024/01/21 11:04:12;;;;;;;15.47;10.00;;;1.50;99.90;;;;;;5100703;28;20460;-48
2024/01/21 11:06:42;;;;;;;14.90;10.83;;;1.40;99.90;;;;;;5101980;28;20430;-48
2024/01/21 11:09:11;;;;;;;11.23;8.73;;;1.50;99.90;;;;;;5101423;28;20462;-47
2024/01/21 11:11:44;;;;;;;15.23;9.80;;;1.50;99.90;;;;;;5100747;28;20466;-47
2024/01/21 11:14:31;;;;;;;15.47;10.93;;;1.50;99.90;;;;;;5101286;28;20467;-45
2024/01/21 11:16:59;;;;;;;14.53;10.47;;;1.50;99.90;;;;;;5101106;28;20568;-45
2024/01/21 11:19:32;;;;;;;12.63;8.97;;;1.50;99.90;;;;;;5101429;28;20536;-45
2024/01/21 11:22:00;;;;;;;14.50;10.60;;;1.50;99.90;;;;;;5101217;28;20754;-44
2024/01/21 11:24:36;;;;;;;13.60;9.83;;;1.40;99.90;;;;;;5101085;28;20754;-43
2024/01/21 11:27:07;;;;;;;16.23;10.40;;;1.40;99.90;;;;;;5101382;28;20460;-44
2024/01/21 11:29:41;;;;;;;12.00;9.00;;;1.40;99.90;;;;;;5101175;28;20466;-46
2024/01/21 11:32:09;;;;;;;14.43;10.30;;;1.40;99.90;;;;;;5101100;28;20516;-45
2024/01/21 11:34:38;;;;;;;12.70;9.70;;;1.40;99.90;;;;;;5100905;28;20446;-47
2024/01/21 11:37:07;;;;;;;16.10;9.43;;;1.50;99.90;;;;;;5101046;28;20561;-48
2024/01/21 11:39:36;;;;;;;13.80;10.17;;;1.40;99.90;;;;;;5101091;28;20816;-45
2024/01/21 11:42:06;;;;;;;13.40;10.43;;;1.40;99.90;;;;;;5100138;28;20917;-47
2024/01/21 11:44:35;;;;;;;13.47;10.00;;;1.50;99.90;;;;;;5100826;28;20456;-51
2024/01/21 11:47:04;;;;;;;15.00;10.70;;;1.50;99.90;;;;;;5100429;28;20434;-53
2024/01/21 11:49:32;;;;;;;14.43;9.90;;;1.50;99.90;;;;;;5100535;28;20438;-47
2024/01/21 11:52:05;;;;;;;13.60;10.20;;;1.60;99.90;;;;;;5100636;28;20460;-52
2024/01/21 11:54:33;;;;;;;17.60;11.70;;;1.60;99.90;;;;;;5100659;28;20470;-53
2024/01/21 11:57:00;;;;;;;16.50;10.20;;;1.60;99.90;;;;;;5100530;28;20553;-46
2024/01/21 11:59:31;;;;;;;14.07;9.50;;;1.60;99.90;;;;;;5100727;28;20509;-52
2024/01/21 12:01:58;;;;;;;14.80;10.13;;;1.60;99.90;;;;;;5100056;28;20484;-52
2024/01/21 12:04:27;;;;;;;15.67;10.57;;;1.60;99.90;;;;;;5100280;28;20885;-47
2024/01/21 12:06:55;;;;;;;16.57;10.23;;;1.70;99.90;;;;;;5098891;28;20461;-52
2024/01/21 12:09:24;;;;;;;15.73;10.70;;;1.60;99.90;;;;;;5099570;28;20545;-51
2024/01/21 12:11:52;;;;;;;13.97;10.07;;;1.70;99.90;;;;;;5099238;28;20847;-50
2024/01/21 12:14:22;;;;;;;17.47;11.70;;;1.60;99.90;;;;;;5098346;28;20878;-47
2024/01/21 12:16:54;;;;;;;14.60;9.87;;;1.60;99.90;;;;;;5102952;28;20869;-47
2024/01/21 12:19:23;;;;;;;15.07;10.73;;;1.60;99.90;;;;;;5119362;28;20911;-53
2024/01/21 12:21:51;;;;;;;20.60;11.70;;;1.70;99.90;;;;;;5116864;28;20479;-51
2024/01/21 12:24:23;;;;;;;15.40;11.57;;;1.70;99.90;;;;;;5120686;28;20460;-51
2024/01/21 12:26:50;;;;;;;17.93;11.50;;;1.70;99.90;;;;;;5120293;28;20753;-50
2024/01/21 12:29:20;;;;;;;17.93;11.77;;;1.70;99.90;;;;;;5120518;28;20464;-55
2024/01/21 12:31:48;;;;;;;15.67;10.97;;;1.70;99.90;;;;;;5120408;28;20505;-47
2024/01/21 12:34:18;;;;;;;16.27;9.90;;;1.80;99.90;;;;;;5120545;28;20499;-50
2024/01/21 12:36:46;;;;;;;13.20;9.47;;;1.80;99.90;;;;;;5119809;28;20487;-50
2024/01/21 12:39:15;;;;;;;15.17;10.37;;;1.80;99.90;;;;;;5119246;28;20460;-48
2024/01/21 12:41:43;;;;;;;16.90;9.80;;;1.80;99.90;;;;;;5117895;28;20459;-52
2024/01/21 12:44:11;;;;;;;14.27;10.03;;;1.90;99.90;;;;;;5118739;28;20459;-46
2024/01/21 12:46:39;;;;;;;14.27;11.10;;;1.90;99.90;;;;;;5118863;28;20459;-46
2024/01/21 12:49:06;;;;;;;12.80;10.13;;;2.00;99.90;;;;;;5119116;28;20463;-52